sensor_id;sensor_type;location;lat;lon;timestamp;P1;durP1;ratioP1;P2;durP2;ratioP2
15151;SDS011;7676;50.900;6.234;2023-05-10T00:04:27;5.63;;;5.10;;
15151;SDS011;7676;50.900;6.234;2023-05-10T00:19:29;6.50;;;5.77;;
15151;SDS011;7676;50.900;6.234;2023-05-10T00:34:32;7.17;;;6.47;;
15151;SDS011;7676;50.900;6.234;2023-05-10T00:49:35;7.33;;;6.57;;
15151;SDS011;7676;50.900;6.234;2023-05-10T01:04:38;8.60;;;7.17;;
15151;SDS011;7676;50.900;6.234;2023-05-10T01:19:41;10.83;;;8.47;;
15151;SDS011;7676;50.900;6.234;2023-05-10T01:34:52;12.60;;;9.80;;
15151;SDS011;7676;50.900;6.234;2023-05-10T01:50:16;12.37;;;11.00;;
15151;SDS011;7676;50.900;6.234;2023-05-10T02:05:21;12.77;;;11.30;;
15151;SDS011;7676;50.900;6.234;2023-05-10T02:20:24;13.90;;;12.03;;
15151;SDS011;7676;50.900;6.234;2023-05-10T02:35:31;12.20;;;10.87;;
15151;SDS011;7676;50.900;6.234;2023-05-10T02:50:36;10.07;;;9.00;;
15151;SDS011;7676;50.900;6.234;2023-05-10T03:05:41;10.77;;;9.67;;
15151;SDS011;7676;50.900;6.234;2023-05-10T03:20:47;12.33;;;10.40;;
15151;SDS011;7676;50.900;6.234;2023-05-10T03:35:53;14.87;;;12.03;;
15151;SDS011;7676;50.900;6.234;2023-05-10T03:50:55;17.73;;;13.60;;
15151;SDS011;7676;50.900;6.234;2023-05-10T04:05:59;14.67;;;10.17;;
15151;SDS011;7676;50.900;6.234;2023-05-10T04:21:03;15.33;;;11.33;;
15151;SDS011;7676;50.900;6.234;2023-05-10T04:36:06;15.93;;;10.33;;
15151;SDS011;7676;50.900;6.234;2023-05-10T04:51:09;13.50;;;10.87;;
15151;SDS011;7676;50.900;6.234;2023-05-10T05:06:12;17.17;;;12.73;;
15151;SDS011;7676;50.900;6.234;2023-05-10T05:21:18;17.80;;;12.87;;
15151;SDS011;7676;50.900;6.234;2023-05-10T05:36:21;14.17;;;12.00;;
15151;SDS011;7676;50.900;6.234;2023-05-10T05:51:24;14.43;;;12.87;;
15151;SDS011;7676;50.900;6.234;2023-05-10T06:06:27;12.27;;;10.40;;
15151;SDS011;7676;50.900;6.234;2023-05-10T06:21:29;9.77;;;7.37;;
15151;SDS011;7676;50.900;6.234;2023-05-10T06:36:32;6.50;;;5.90;;
15151;SDS011;7676;50.900;6.234;2023-05-10T06:51:49;5.83;;;4.47;;
15151;SDS011;7676;50.900;6.234;2023-05-10T07:06:51;4.70;;;3.70;;
15151;SDS011;7676;50.900;6.234;2023-05-10T07:21:54;5.00;;;4.30;;
15151;SDS011;7676;50.900;6.234;2023-05-10T07:36:58;5.90;;;5.30;;
15151;SDS011;7676;50.900;6.234;2023-05-10T07:52:05;10.73;;;8.50;;
15151;SDS011;7676;50.900;6.234;2023-05-10T08:07:07;24.33;;;15.93;;
15151;SDS011;7676;50.900;6.234;2023-05-10T08:22:10;23.80;;;16.17;;
15151;SDS011;7676;50.900;6.234;2023-05-10T08:37:17;24.90;;;17.13;;
15151;SDS011;7676;50.900;6.234;2023-05-10T08:52:27;24.97;;;17.63;;
15151;SDS011;7676;50.900;6.234;2023-05-10T09:07:32;19.57;;;13.67;;
15151;SDS011;7676;50.900;6.234;2023-05-10T09:22:38;8.30;;;6.57;;
15151;SDS011;7676;50.900;6.234;2023-05-10T09:37:43;8.03;;;6.63;;
15151;SDS011;7676;50.900;6.234;2023-05-10T09:52:48;7.03;;;5.93;;
15151;SDS011;7676;50.900;6.234;2023-05-10T10:08:09;5.80;;;4.80;;
15151;SDS011;7676;50.900;6.234;2023-05-10T10:23:14;6.23;;;5.23;;
15151;SDS011;7676;50.900;6.234;2023-05-10T10:53:50;3.83;;;3.53;;
15151;SDS011;7676;50.900;6.234;2023-05-10T11:08:53;4.27;;;3.87;;
15151;SDS011;7676;50.900;6.234;2023-05-10T11:23:57;4.43;;;3.57;;
15151;SDS011;7676;50.900;6.234;2023-05-10T11:39:03;2.40;;;2.20;;
15151;SDS011;7676;50.900;6.234;2023-05-10T11:54:09;2.57;;;2.37;;
15151;SDS011;7676;50.900;6.234;2023-05-10T12:09:27;3.20;;;2.90;;
15151;SDS011;7676;50.900;6.234;2023-05-10T12:24:52;4.37;;;3.97;;
15151;SDS011;7676;50.900;6.234;2023-05-10T12:40:00;4.33;;;3.93;;
15151;SDS011;7676;50.900;6.234;2023-05-10T12:55:17;2.57;;;2.37;;
15151;SDS011;7676;50.900;6.234;2023-05-10T13:10:20;3.83;;;3.03;;
15151;SDS011;7676;50.900;6.234;2023-05-10T13:25:26;3.10;;;2.80;;
15151;SDS011;7676;50.900;6.234;2023-05-10T13:40:28;3.50;;;2.27;;
15151;SDS011;7676;50.900;6.234;2023-05-10T13:55:31;2.53;;;1.90;;
15151;SDS011;7676;50.900;6.234;2023-05-10T14:10:33;2.60;;;2.40;;
15151;SDS011;7676;50.900;6.234;2023-05-10T14:25:36;2.37;;;1.90;;
15151;SDS011;7676;50.900;6.234;2023-05-10T14:40:39;2.60;;;2.30;;
15151;SDS011;7676;50.900;6.234;2023-05-10T14:55:42;2.20;;;1.83;;
15151;SDS011;7676;50.900;6.234;2023-05-10T15:10:45;2.03;;;1.70;;
15151;SDS011;7676;50.900;6.234;2023-05-10T15:26:02;2.20;;;1.80;;
15151;SDS011;7676;50.900;6.234;2023-05-10T15:41:04;3.10;;;2.80;;
15151;SDS011;7676;50.900;6.234;2023-05-10T15:56:07;3.07;;;2.77;;
15151;SDS011;7676;50.900;6.234;2023-05-10T16:11:23;3.57;;;3.00;;
15151;SDS011;7676;50.900;6.234;2023-05-10T16:26:30;3.77;;;2.57;;
15151;SDS011;7676;50.900;6.234;2023-05-10T16:41:33;2.77;;;2.30;;
15151;SDS011;7676;50.900;6.234;2023-05-10T16:56:36;2.10;;;1.80;;
15151;SDS011;7676;50.900;6.234;2023-05-10T17:11:39;2.33;;;1.50;;
15151;SDS011;7676;50.900;6.234;2023-05-10T17:26:43;1.77;;;1.60;;
15151;SDS011;7676;50.900;6.234;2023-05-10T17:41:45;0.90;;;0.90;;
15151;SDS011;7676;50.900;6.234;2023-05-10T17:56:48;0.60;;;0.60;;
15151;SDS011;7676;50.900;6.234;2023-05-10T18:11:50;1.20;;;1.10;;
15151;SDS011;7676;50.900;6.234;2023-05-10T18:26:53;1.30;;;1.00;;
15151;SDS011;7676;50.900;6.234;2023-05-10T18:42:09;1.73;;;1.27;;
15151;SDS011;7676;50.900;6.234;2023-05-10T18:57:12;1.40;;;1.30;;
15151;SDS011;7676;50.900;6.234;2023-05-10T19:12:15;1.67;;;1.10;;
15151;SDS011;7676;50.900;6.234;2023-05-10T19:27:18;1.70;;;1.50;;
15151;SDS011;7676;50.900;6.234;2023-05-10T19:42:21;1.50;;;1.33;;
15151;SDS011;7676;50.900;6.234;2023-05-10T19:57:24;1.70;;;1.30;;
15151;SDS011;7676;50.900;6.234;2023-05-10T20:12:28;2.03;;;1.83;;
15151;SDS011;7676;50.900;6.234;2023-05-10T20:27:31;4.80;;;3.83;;
15151;SDS011;7676;50.900;6.234;2023-05-10T20:42:37;4.67;;;3.67;;
15151;SDS011;7676;50.900;6.234;2023-05-10T20:57:40;4.37;;;3.50;;
15151;SDS011;7676;50.900;6.234;2023-05-10T21:12:42;7.27;;;6.37;;
15151;SDS011;7676;50.900;6.234;2023-05-10T21:27:52;8.83;;;7.93;;
15151;SDS011;7676;50.900;6.234;2023-05-10T21:42:57;10.83;;;8.80;;
15151;SDS011;7676;50.900;6.234;2023-05-10T21:58:01;11.17;;;10.07;;
15151;SDS011;7676;50.900;6.234;2023-05-10T22:13:03;11.53;;;10.33;;
15151;SDS011;7676;50.900;6.234;2023-05-10T22:28:05;11.17;;;9.93;;
15151;SDS011;7676;50.900;6.234;2023-05-10T22:43:09;8.57;;;7.33;;
15151;SDS011;7676;50.900;6.234;2023-05-10T22:58:11;6.47;;;5.87;;
15151;SDS011;7676;50.900;6.234;2023-05-10T23:13:14;5.93;;;5.37;;
15151;SDS011;7676;50.900;6.234;2023-05-10T23:28:31;7.00;;;5.40;;
15151;SDS011;7676;50.900;6.234;2023-05-10T23:43:33;6.97;;;5.73;;
15151;SDS011;7676;50.900;6.234;2023-05-10T23:58:36;6.90;;;6.27;;
